Mehtap Bayraktar — TCPB — position and weather

sailwx.info

Track history (hours):
 
Tides and Currents Weather Stations Pressure Air Temp Water Temp Dewpoint Dewpoint Depression Visibility Wind Speed Wind Dir Waves Ship Positions

Mehtap Bayraktar

Last reported at 2014-Jul-28 23:25 UTC. Time now 2014-Jul-30 21:22 UTC.
Position N 38°38' E 001°01'.

Length 114 m; draft 5 m.

Type: Cargo ship. MMSI: 271000578.

Date/timePositionNaut miles runAvg speedWind from/ knotsBaromVisibWave heightAir tempDewpointWater temp
2014-Jul-28 23:25N 38°38' E 001°01'8412.3
2014-Jul-28 16:33N 39°53' E 000°10'46 3.8
2014-Jul-28 04:33N 39°13' E 000°39'2512.4
2014-Jul-28 02:33N 38°51' E 000°54'1312.9
2014-Jul-28 01:33N 38°39' E 001°00'1412.6
2014-Jul-28 00:28N 38°27' E 001°09'1413.0
2014-Jul-27 23:23N 38°17' E 001°22'8113.0
2014-Jul-27 17:08N 37°18' E 002°33'912.9
2014-Jul-27 16:28N 37°12' E 002°40'1312.8
2014-Jul-27 15:26N 37°02' E 002°51'19 0.4
2014-Jul-25 13:05N 36°46' E 003°06'2911.4
2014-Jul-25 10:33N 37°14' E 002°57'1612.5
2014-Jul-25 09:17N 37°29' E 002°50'2011.5
2014-Jul-25 07:32N 37°48' E 002°42'1311.5
2014-Jul-25 06:24N 38°01' E 002°37'1011.6
2014-Jul-25 05:33N 38°10' E 002°32'1211.8
2014-Jul-25 04:33N 38°21' E 002°28'1212.1
2014-Jul-25 03:33N 38°33' E 002°23'1212.0
2014-Jul-25 02:33N 38°44' E 002°17'1212.0
2014-Jul-25 01:34N 38°55' E 002°12'1212.1
2014-Jul-25 00:33N 39°07' E 002°07'1211.9
2014-Jul-24 23:33N 39°18' E 002°02'1211.5
2014-Jul-24 22:33N 39°29' E 001°58'1110.8
2014-Jul-24 21:32N 39°40' E 001°57'1211.8
2014-Jul-24 20:33N 39°51' E 001°58'1212.1
2014-Jul-24 19:33N 40°04' E 001°60'1212.1
2014-Jul-24 18:33N 40°16' E 002°01'1211.9
2014-Jul-24 17:33N 40°28' E 002°02'1212.0
2014-Jul-24 16:33N 40°39' E 002°04'1212.2
2014-Jul-24 15:33N 40°52' E 002°05'1312.8
2014-Jul-24 14:33N 41°04' E 002°08'1312.6
2014-Jul-24 13:33N 41°17' E 002°10'4 3.4
2014-Jul-24 12:22N 41°21' E 002°10'0 0.0
2014-Jul-24 11:16N 41°21' E 002°10'0 0.0
2014-Jul-24 10:31N 41°21' E 002°10'0 0.0
2014-Jul-24 09:28N 41°21' E 002°10'0 0.0
2014-Jul-24 06:28N 41°21' E 002°10'0 0.0
2014-Jul-24 05:28N 41°21' E 002°10'0 0.0
2014-Jul-24 04:12N 41°21' E 002°10'0 0.0
2014-Jul-24 01:16N 41°21' E 002°10'0 0.0
2014-Jul-24 00:32N 41°21' E 002°10'0 0.0
2014-Jul-23 23:28N 41°21' E 002°10'0 0.0
2014-Jul-23 21:31N 41°21' E 002°10'0 0.0
2014-Jul-23 20:31N 41°21' E 002°10'0 0.0
2014-Jul-23 19:28N 41°21' E 002°10'0 0.0
2014-Jul-23 18:30N 41°21' E 002°10'6 6.3
2014-Jul-23 17:33N 41°15' E 002°13'1110.9
2014-Jul-23 16:33N 41°07' E 002°22'8 8.1
2014-Jul-23 15:33N 41°01' E 002°29'1211.8
2014-Jul-23 14:33N 40°51' E 002°38'1211.8
2014-Jul-23 13:33N 40°42' E 002°48'1212.2
2014-Jul-23 12:33N 40°32' E 002°57'1212.4
2014-Jul-23 11:33N 40°22' E 003°07'1513.4
2014-Jul-23 10:27N 40°10' E 003°19'1312.1
2014-Jul-23 09:24N 39°60' E 003°29'1011.6
2014-Jul-23 08:33N 39°52' E 003°37'1312.6
2014-Jul-23 07:29N 39°40' E 003°44'1513.1
2014-Jul-23 06:23N 39°26' E 003°50'1012.0
2014-Jul-23 05:33N 39°17' E 003°55'1212.4
2014-Jul-23 04:33N 39°06' E 004°02'1512.5
2014-Jul-23 03:22N 38°52' E 004°08'1112.6
2014-Jul-23 02:32N 38°42' E 004°13'1412.2
2014-Jul-23 01:26N 38°30' E 004°20'1011.8
2014-Jul-23 00:33N 38°20' E 004°24'1412.0
2014-Jul-22 23:25N 38°07' E 004°31'3510.4
2014-Jul-22 20:05N 37°35' E 004°47'611.7
2014-Jul-22 19:33N 37°30' E 004°51'1211.8
2014-Jul-22 18:33N 37°19' E 004°56'1211.7
2014-Jul-22 17:29N 37°07' E 005°00'1112.3
2014-Jul-22 16:33N 36°56' E 005°05'14 0.3
2014-Jul-20 15:06N 36°43' E 005°09'0 0.1
2014-Jul-20 14:24N 36°43' E 005°09'3411.5
2014-Jul-20 11:29N 37°09' E 004°43'3015.6
2014-Jul-20 09:33N 37°29' E 004°15'7 7.0
2014-Jul-20 08:33N 37°34' E 004°09'1212.4
2014-Jul-20 07:33N 37°42' E 003°57'1312.5
2014-Jul-20 06:29N 37°51' E 003°45'1212.6
2014-Jul-20 05:33N 37°60' E 003°34'1812.7
2014-Jul-20 04:07N 38°12' E 003°17'712.8
2014-Jul-20 03:32N 38°17' E 003°10'1312.7
2014-Jul-20 02:33N 38°25' E 002°58'1312.6
2014-Jul-20 01:33N 38°34' E 002°46'1212.1
2014-Jul-20 00:33N 38°42' E 002°34'1212.2
2014-Jul-19 23:33N 38°50' E 002°23'1212.3
2014-Jul-19 22:33N 38°58' E 002°11'1212.0
2014-Jul-19 21:33N 39°06' E 001°60'1212.3
2014-Jul-19 20:33N 39°14' E 001°48'1312.5
2014-Jul-19 19:33N 39°20' E 001°33'1212.4
2014-Jul-19 18:33N 39°25' E 001°19'1812.4
2014-Jul-19 17:06N 39°34' E 000°58'912.3
2014-Jul-19 16:23N 39°38' E 000°48'1012.1
2014-Jul-19 15:33N 39°42' E 000°37'1211.8
2014-Jul-19 14:33N 39°48' E 000°23'1211.4
2014-Jul-19 13:31N 39°55' E 000°10'7 7.8
2014-Jul-19 12:33N 39°58' E 000°02'0 0.0
2014-Jul-19 11:27N 39°58' E 000°02'0 0.0
2014-Jul-19 09:33N 39°58' E 000°02'0 0.0
2014-Jul-19 00:27N 39°58' E 000°02'  
Track history (hours):
 
Tides and Currents Weather Stations Pressure Air Temp Water Temp Dewpoint Dewpoint Depression Visibility Wind Speed Wind Dir Waves Ship Positions

Mehtap Bayraktar

Last reported at 2014-Jul-28 23:25 UTC. Time now 2014-Jul-30 21:22 UTC.
Position N 38°38' E 001°01'.

Length 114 m; draft 5 m.

Type: Cargo ship. MMSI: 271000578.

Date/timePositionNaut miles runAvg speedWind from/ knotsBaromVisibWave heightAir tempDewpointWater temp
2014-Jul-28 23:25N 38°38' E 001°01'8412.3
2014-Jul-28 16:33N 39°53' E 000°10'46 3.8
2014-Jul-28 04:33N 39°13' E 000°39'2512.4
2014-Jul-28 02:33N 38°51' E 000°54'1312.9
2014-Jul-28 01:33N 38°39' E 001°00'1412.6
2014-Jul-28 00:28N 38°27' E 001°09'1413.0
2014-Jul-27 23:23N 38°17' E 001°22'8113.0
2014-Jul-27 17:08N 37°18' E 002°33'912.9
2014-Jul-27 16:28N 37°12' E 002°40'1312.8
2014-Jul-27 15:26N 37°02' E 002°51'19 0.4
2014-Jul-25 13:05N 36°46' E 003°06'2911.4
2014-Jul-25 10:33N 37°14' E 002°57'1612.5
2014-Jul-25 09:17N 37°29' E 002°50'2011.5
2014-Jul-25 07:32N 37°48' E 002°42'1311.5
2014-Jul-25 06:24N 38°01' E 002°37'1011.6
2014-Jul-25 05:33N 38°10' E 002°32'1211.8
2014-Jul-25 04:33N 38°21' E 002°28'1212.1
2014-Jul-25 03:33N 38°33' E 002°23'1212.0
2014-Jul-25 02:33N 38°44' E 002°17'1212.0
2014-Jul-25 01:34N 38°55' E 002°12'1212.1
2014-Jul-25 00:33N 39°07' E 002°07'1211.9
2014-Jul-24 23:33N 39°18' E 002°02'1211.5
2014-Jul-24 22:33N 39°29' E 001°58'1110.8
2014-Jul-24 21:32N 39°40' E 001°57'1211.8
2014-Jul-24 20:33N 39°51' E 001°58'1212.1
2014-Jul-24 19:33N 40°04' E 001°60'1212.1
2014-Jul-24 18:33N 40°16' E 002°01'1211.9
2014-Jul-24 17:33N 40°28' E 002°02'1212.0
2014-Jul-24 16:33N 40°39' E 002°04'1212.2
2014-Jul-24 15:33N 40°52' E 002°05'1312.8
2014-Jul-24 14:33N 41°04' E 002°08'1312.6
2014-Jul-24 13:33N 41°17' E 002°10'4 3.4
2014-Jul-24 12:22N 41°21' E 002°10'0 0.0
2014-Jul-24 11:16N 41°21' E 002°10'0 0.0
2014-Jul-24 10:31N 41°21' E 002°10'0 0.0
2014-Jul-24 09:28N 41°21' E 002°10'0 0.0
2014-Jul-24 06:28N 41°21' E 002°10'0 0.0
2014-Jul-24 05:28N 41°21' E 002°10'0 0.0
2014-Jul-24 04:12N 41°21' E 002°10'0 0.0
2014-Jul-24 01:16N 41°21' E 002°10'0 0.0
2014-Jul-24 00:32N 41°21' E 002°10'0 0.0
2014-Jul-23 23:28N 41°21' E 002°10'0 0.0
2014-Jul-23 21:31N 41°21' E 002°10'0 0.0
2014-Jul-23 20:31N 41°21' E 002°10'0 0.0
2014-Jul-23 19:28N 41°21' E 002°10'0 0.0
2014-Jul-23 18:30N 41°21' E 002°10'6 6.3
2014-Jul-23 17:33N 41°15' E 002°13'1110.9
2014-Jul-23 16:33N 41°07' E 002°22'8 8.1
2014-Jul-23 15:33N 41°01' E 002°29'1211.8
2014-Jul-23 14:33N 40°51' E 002°38'1211.8
2014-Jul-23 13:33N 40°42' E 002°48'1212.2
2014-Jul-23 12:33N 40°32' E 002°57'1212.4
2014-Jul-23 11:33N 40°22' E 003°07'1513.4
2014-Jul-23 10:27N 40°10' E 003°19'1312.1
2014-Jul-23 09:24N 39°60' E 003°29'1011.6
2014-Jul-23 08:33N 39°52' E 003°37'1312.6
2014-Jul-23 07:29N 39°40' E 003°44'1513.1
2014-Jul-23 06:23N 39°26' E 003°50'1012.0
2014-Jul-23 05:33N 39°17' E 003°55'1212.4
2014-Jul-23 04:33N 39°06' E 004°02'1512.5
2014-Jul-23 03:22N 38°52' E 004°08'1112.6
2014-Jul-23 02:32N 38°42' E 004°13'1412.2
2014-Jul-23 01:26N 38°30' E 004°20'1011.8
2014-Jul-23 00:33N 38°20' E 004°24'1412.0
2014-Jul-22 23:25N 38°07' E 004°31'3510.4
2014-Jul-22 20:05N 37°35' E 004°47'611.7
2014-Jul-22 19:33N 37°30' E 004°51'1211.8
2014-Jul-22 18:33N 37°19' E 004°56'1211.7
2014-Jul-22 17:29N 37°07' E 005°00'1112.3
2014-Jul-22 16:33N 36°56' E 005°05'14 0.3
2014-Jul-20 15:06N 36°43' E 005°09'0 0.1
2014-Jul-20 14:24N 36°43' E 005°09'3411.5
2014-Jul-20 11:29N 37°09' E 004°43'3015.6
2014-Jul-20 09:33N 37°29' E 004°15'7 7.0
2014-Jul-20 08:33N 37°34' E 004°09'1212.4
2014-Jul-20 07:33N 37°42' E 003°57'1312.5
2014-Jul-20 06:29N 37°51' E 003°45'1212.6
2014-Jul-20 05:33N 37°60' E 003°34'1812.7
2014-Jul-20 04:07N 38°12' E 003°17'712.8
2014-Jul-20 03:32N 38°17' E 003°10'1312.7
2014-Jul-20 02:33N 38°25' E 002°58'1312.6
2014-Jul-20 01:33N 38°34' E 002°46'1212.1
2014-Jul-20 00:33N 38°42' E 002°34'1212.2
2014-Jul-19 23:33N 38°50' E 002°23'1212.3
2014-Jul-19 22:33N 38°58' E 002°11'1212.0
2014-Jul-19 21:33N 39°06' E 001°60'1212.3
2014-Jul-19 20:33N 39°14' E 001°48'1312.5
2014-Jul-19 19:33N 39°20' E 001°33'1212.4
2014-Jul-19 18:33N 39°25' E 001°19'1812.4
2014-Jul-19 17:06N 39°34' E 000°58'912.3
2014-Jul-19 16:23N 39°38' E 000°48'1012.1
2014-Jul-19 15:33N 39°42' E 000°37'1211.8
2014-Jul-19 14:33N 39°48' E 000°23'1211.4
2014-Jul-19 13:31N 39°55' E 000°10'7 7.8
2014-Jul-19 12:33N 39°58' E 000°02'0 0.0
2014-Jul-19 11:27N 39°58' E 000°02'0 0.0
2014-Jul-19 09:33N 39°58' E 000°02'0 0.0
2014-Jul-19 00:27N 39°58' E 000°02'  

Dump ship's entire track history